createdAt,value
2023-12-28T00:00:31.997Z,1.70
2023-12-28T00:02:59.944Z,1.40
2023-12-28T00:05:28.015Z,1.50
2023-12-28T00:07:59.400Z,1.50
2023-12-28T00:10:30.388Z,1.80
2023-12-28T00:12:58.378Z,1.23
2023-12-28T00:15:26.456Z,1.50
2023-12-28T00:17:54.630Z,2.07
2023-12-28T00:20:22.749Z,1.63
2023-12-28T00:22:50.676Z,1.70
2023-12-28T00:25:18.912Z,1.83
2023-12-28T00:27:48.375Z,1.77
2023-12-28T00:30:18.524Z,1.83
2023-12-28T00:32:47.305Z,2.00
2023-12-28T00:35:15.562Z,1.63
2023-12-28T00:37:43.744Z,1.90
2023-12-28T00:40:12.505Z,1.93
2023-12-28T00:42:42.022Z,1.60
2023-12-28T00:45:12.118Z,1.73
2023-12-28T00:47:40.358Z,1.73
2023-12-28T00:50:08.993Z,2.23
2023-12-28T00:52:37.408Z,1.60
2023-12-28T00:55:06.362Z,2.03
2023-12-28T00:57:34.380Z,2.27
2023-12-28T01:00:02.594Z,1.60
2023-12-28T01:02:31.987Z,1.53
2023-12-28T01:04:59.984Z,1.63
2023-12-28T01:07:28.089Z,1.80
2023-12-28T01:09:56.169Z,1.60
2023-12-28T01:12:24.224Z,1.97
2023-12-28T01:14:52.467Z,1.50
2023-12-28T01:17:20.823Z,1.70
2023-12-28T01:19:50.368Z,1.90
2023-12-28T01:22:18.834Z,1.80
2023-12-28T01:24:50.643Z,1.40
2023-12-28T01:27:19.054Z,1.63
2023-12-28T01:29:47.087Z,1.47
2023-12-28T01:32:15.065Z,1.30
2023-12-28T01:34:43.580Z,1.63
2023-12-28T01:37:13.015Z,1.58
2023-12-28T01:39:41.474Z,1.47
2023-12-28T01:42:09.615Z,1.50
2023-12-28T01:44:37.712Z,1.33
2023-12-28T01:47:06.349Z,1.30
2023-12-28T01:49:35.904Z,1.70
2023-12-28T01:52:04.753Z,1.50
2023-12-28T01:54:34.606Z,1.30
2023-12-28T01:57:04.035Z,1.70
2023-12-28T01:59:32.476Z,1.27
2023-12-28T02:02:00.887Z,1.63
2023-12-28T02:04:30.142Z,1.50
2023-12-28T02:06:59.745Z,1.75
2023-12-28T02:09:28.129Z,1.40
2023-12-28T02:11:57.650Z,1.70
2023-12-28T02:14:25.698Z,1.40
2023-12-28T02:17:02.193Z,1.30
2023-12-28T02:19:39.203Z,1.80
2023-12-28T02:22:07.929Z,2.00
2023-12-28T02:25:00.875Z,1.40
2023-12-28T02:27:29.535Z,1.23
2023-12-28T02:29:58.125Z,1.67
2023-12-28T02:32:38.233Z,1.00
2023-12-28T02:35:16.496Z,1.67
2023-12-28T02:37:46.924Z,1.43
2023-12-28T02:40:18.519Z,1.45
2023-12-28T02:42:46.657Z,1.57
2023-12-28T02:45:14.692Z,1.57
2023-12-28T02:47:42.804Z,1.20
2023-12-28T02:50:11.650Z,1.57
2023-12-28T02:52:39.618Z,1.40
2023-12-28T02:55:08.783Z,1.67
2023-12-28T02:57:39.495Z,1.40
2023-12-28T03:00:09.825Z,1.83
2023-12-28T03:02:38.736Z,1.30
2023-12-28T03:05:08.093Z,1.47
2023-12-28T03:07:36.591Z,1.40
2023-12-28T03:10:05.086Z,1.50
2023-12-28T03:12:33.608Z,1.33
2023-12-28T03:15:07.117Z,1.40
2023-12-28T03:17:35.464Z,1.63
2023-12-28T03:20:03.763Z,1.00
2023-12-28T03:22:31.824Z,1.53
2023-12-28T03:25:00.329Z,1.00
2023-12-28T03:27:28.522Z,1.43
2023-12-28T03:29:56.591Z,1.17
2023-12-28T03:32:26.125Z,1.10
2023-12-28T03:34:54.184Z,1.10
2023-12-28T03:37:22.247Z,1.00
2023-12-28T03:39:50.300Z,1.00
2023-12-28T03:42:18.508Z,1.13
2023-12-28T03:44:46.515Z,1.63
2023-12-28T03:47:14.674Z,1.20
2023-12-28T03:49:44.033Z,1.17
2023-12-28T03:52:12.115Z,1.00
2023-12-28T03:54:41.655Z,1.20
2023-12-28T03:57:09.590Z,1.50
2023-12-28T03:59:37.657Z,1.10
2023-12-28T04:02:06.055Z,0.90
2023-12-28T04:04:34.068Z,1.00
2023-12-28T04:07:03.419Z,1.00
2023-12-28T04:09:31.638Z,1.23
2023-12-28T04:11:59.577Z,1.03
2023-12-28T04:14:27.518Z,1.00
2023-12-28T04:16:55.600Z,0.90
2023-12-28T04:19:23.667Z,1.10
2023-12-28T04:21:51.700Z,1.13
2023-12-28T04:24:21.537Z,1.57
2023-12-28T04:26:49.507Z,1.00
2023-12-28T04:29:17.460Z,1.20
2023-12-28T04:31:45.621Z,1.30
2023-12-28T04:34:13.947Z,2.00
2023-12-28T04:36:43.565Z,1.77
2023-12-28T04:39:11.787Z,2.83
2023-12-28T04:41:41.257Z,2.60
2023-12-28T04:44:09.225Z,1.70
2023-12-28T04:46:41.485Z,1.03
2023-12-28T04:49:09.535Z,0.90
2023-12-28T04:51:37.740Z,1.30
2023-12-28T04:54:05.748Z,0.83
2023-12-28T04:56:33.722Z,1.40
2023-12-28T04:59:03.030Z,1.03
2023-12-28T05:01:32.688Z,1.33
2023-12-28T05:04:01.670Z,0.93
2023-12-28T05:06:31.126Z,1.00
2023-12-28T05:08:59.318Z,0.90
2023-12-28T05:11:27.268Z,0.70
2023-12-28T05:13:55.545Z,1.27
2023-12-28T05:16:25.078Z,1.20
2023-12-28T05:18:53.181Z,1.00
2023-12-28T05:21:22.043Z,1.10
2023-12-28T05:23:50.252Z,0.90
2023-12-28T05:26:18.213Z,1.00
2023-12-28T05:28:46.149Z,0.90
2023-12-28T05:31:15.259Z,1.17
2023-12-28T05:33:44.750Z,1.20
2023-12-28T05:36:12.811Z,0.97
2023-12-28T05:38:41.096Z,1.03
2023-12-28T05:41:09.379Z,1.07
2023-12-28T05:43:37.342Z,1.20
2023-12-28T05:46:05.766Z,1.00
2023-12-28T05:48:34.049Z,1.20
2023-12-28T05:51:03.666Z,1.83
2023-12-28T05:53:32.253Z,2.87
2023-12-28T05:56:04.266Z,1.40
2023-12-28T05:58:32.415Z,1.20
2023-12-28T06:01:01.036Z,1.10
2023-12-28T06:03:29.676Z,1.33
2023-12-28T06:05:58.296Z,1.20
2023-12-28T06:08:28.346Z,3.00
2023-12-28T06:10:56.461Z,1.70
2023-12-28T06:13:24.551Z,2.20
2023-12-28T06:15:52.573Z,2.07
2023-12-28T06:18:20.682Z,1.30
2023-12-28T06:20:48.887Z,1.70
2023-12-28T06:23:16.836Z,1.10
2023-12-28T06:25:46.268Z,1.70
2023-12-28T06:28:14.344Z,2.03
2023-12-28T06:30:42.513Z,0.97
2023-12-28T06:33:10.684Z,1.07
2023-12-28T06:35:39.072Z,1.03
2023-12-28T06:38:06.998Z,1.10
2023-12-28T06:40:34.950Z,0.80
2023-12-28T06:43:04.556Z,0.87
2023-12-28T06:45:32.677Z,1.07
2023-12-28T06:48:00.929Z,1.20
2023-12-28T06:50:30.699Z,1.17
2023-12-28T06:52:58.660Z,1.03
2023-12-28T06:55:26.779Z,2.20
2023-12-28T06:57:54.998Z,1.10
2023-12-28T07:00:24.409Z,1.20
2023-12-28T07:02:52.437Z,0.77
2023-12-28T07:05:20.724Z,2.50
2023-12-28T07:07:48.781Z,0.90
2023-12-28T07:10:17.581Z,1.10
2023-12-28T07:12:46.099Z,1.87
2023-12-28T07:15:15.678Z,1.27
2023-12-28T07:17:45.381Z,1.20
2023-12-28T07:20:14.086Z,1.03
2023-12-28T07:22:42.453Z,1.20
2023-12-28T07:25:10.629Z,1.20
2023-12-28T07:27:38.934Z,0.87
2023-12-28T07:30:09.048Z,1.00
2023-12-28T07:32:37.084Z,1.40
2023-12-28T07:35:07.562Z,1.83
2023-12-28T07:37:35.744Z,1.43
2023-12-28T07:40:04.181Z,1.00
2023-12-28T07:42:32.521Z,1.27
2023-12-28T07:45:00.598Z,1.07
2023-12-28T07:47:29.248Z,1.27
2023-12-28T07:49:57.582Z,1.50
2023-12-28T07:52:26.972Z,1.13
2023-12-28T07:54:54.982Z,1.57
2023-12-28T07:57:23.629Z,1.47
2023-12-28T07:59:51.699Z,1.50
2023-12-28T08:02:21.689Z,1.73
2023-12-28T08:04:51.078Z,1.53
2023-12-28T08:07:19.088Z,1.40
2023-12-28T08:09:48.479Z,2.00
2023-12-28T08:12:16.825Z,1.67
2023-12-28T08:14:44.909Z,1.67
2023-12-28T08:17:12.900Z,1.60
2023-12-28T08:19:41.371Z,1.70
2023-12-28T08:22:09.373Z,1.60
2023-12-28T08:24:37.445Z,1.67
2023-12-28T08:27:07.206Z,1.37
2023-12-28T08:29:35.224Z,1.73
2023-12-28T08:32:03.174Z,1.80
2023-12-28T08:34:31.867Z,1.27
2023-12-28T08:37:00.412Z,1.43
2023-12-28T08:39:28.447Z,1.00
2023-12-28T08:41:57.755Z,1.47
2023-12-28T08:44:27.050Z,1.40
2023-12-28T08:46:55.030Z,1.20
2023-12-28T08:49:24.057Z,1.60
2023-12-28T08:51:52.674Z,1.57
2023-12-28T08:54:20.697Z,1.40
2023-12-28T08:56:52.694Z,3.90
2023-12-28T08:59:21.901Z,3.70
2023-12-28T09:01:51.493Z,1.37
2023-12-28T09:04:19.573Z,1.60
2023-12-28T09:06:47.796Z,2.17
2023-12-28T09:09:16.110Z,1.70
2023-12-28T09:11:44.126Z,1.70
2023-12-28T09:14:12.158Z,1.40
2023-12-28T09:16:40.421Z,1.23
2023-12-28T09:19:09.873Z,1.20
2023-12-28T09:21:37.980Z,1.23
2023-12-28T09:24:06.423Z,2.07
2023-12-28T09:26:34.569Z,1.20
2023-12-28T09:29:02.628Z,1.20
2023-12-28T09:31:30.815Z,1.50
2023-12-28T09:33:58.826Z,1.20
2023-12-28T09:36:28.224Z,0.80
2023-12-28T09:38:56.365Z,0.97
2023-12-28T09:41:28.230Z,0.90
2023-12-28T09:43:59.185Z,1.83
2023-12-28T09:46:28.442Z,1.07
2023-12-28T09:48:57.615Z,1.10
2023-12-28T09:51:27.891Z,1.20
2023-12-28T09:53:56.184Z,1.40
2023-12-28T09:56:25.854Z,2.13
2023-12-28T09:58:57.384Z,2.17
2023-12-28T10:01:25.573Z,1.17
2023-12-28T10:03:53.623Z,1.40
2023-12-28T10:06:22.784Z,0.90
2023-12-28T10:08:52.312Z,0.90
2023-12-28T10:11:21.574Z,0.87
2023-12-28T10:13:50.876Z,1.00
2023-12-28T10:16:19.011Z,1.20
2023-12-28T10:18:47.617Z,1.70
2023-12-28T10:21:16.025Z,1.30
2023-12-28T10:23:44.019Z,1.33
2023-12-28T10:26:13.887Z,1.27
2023-12-28T10:28:42.339Z,1.53
2023-12-28T10:31:10.803Z,1.13
2023-12-28T10:33:39.722Z,0.80
2023-12-28T10:36:10.522Z,1.30
2023-12-28T10:38:40.218Z,1.33
2023-12-28T10:41:10.100Z,1.10
2023-12-28T10:43:48.343Z,1.87
2023-12-28T10:46:27.447Z,1.20
2023-12-28T10:49:00.308Z,1.10
2023-12-28T10:51:30.160Z,1.77
2023-12-28T10:54:10.348Z,1.90
2023-12-28T10:56:43.598Z,1.75
2023-12-28T10:59:21.469Z,1.40
2023-12-28T11:01:53.978Z,1.37
2023-12-28T11:04:29.562Z,1.20
2023-12-28T11:06:58.795Z,2.10
2023-12-28T11:09:28.680Z,1.03
2023-12-28T11:12:00.335Z,1.00
2023-12-28T11:14:30.335Z,1.60
2023-12-28T11:17:01.760Z,1.20
2023-12-28T11:19:31.037Z,1.10
2023-12-28T11:22:01.148Z,1.00
2023-12-28T11:24:30.595Z,1.20
2023-12-28T11:26:59.169Z,1.10
2023-12-28T11:29:27.232Z,1.53
2023-12-28T11:31:57.097Z,1.23
2023-12-28T11:34:28.013Z,1.30
2023-12-28T11:36:57.884Z,1.57
2023-12-28T11:39:34.635Z,1.30
2023-12-28T11:42:04.251Z,1.50
2023-12-28T11:44:32.432Z,1.13
2023-12-28T11:47:01.881Z,1.50
2023-12-28T11:49:30.813Z,1.70
2023-12-28T11:52:00.867Z,0.80
2023-12-28T11:54:29.955Z,1.50
2023-12-28T11:56:58.090Z,1.63
2023-12-28T11:59:26.053Z,1.30
2023-12-28T12:01:54.806Z,1.90
2023-12-28T12:04:24.724Z,1.60
2023-12-28T12:06:54.613Z,1.40
2023-12-28T12:09:24.337Z,1.43
2023-12-28T12:11:54.075Z,1.40
2023-12-28T12:14:22.078Z,1.00
2023-12-28T12:16:50.068Z,1.00
2023-12-28T12:19:18.366Z,1.10
2023-12-28T12:21:49.700Z,1.00
2023-12-28T12:24:19.615Z,1.43
2023-12-28T12:26:48.270Z,1.70
2023-12-28T12:29:16.767Z,1.90
2023-12-28T12:31:45.962Z,1.33
2023-12-28T12:34:17.521Z,1.40
2023-12-28T12:36:47.420Z,1.47
2023-12-28T12:39:16.374Z,1.02
2023-12-28T12:41:44.412Z,1.23
2023-12-28T12:44:12.497Z,1.43
2023-12-28T12:46:40.688Z,1.20
2023-12-28T12:49:08.936Z,2.07
2023-12-28T12:51:37.385Z,1.60
2023-12-28T12:54:07.104Z,1.80
2023-12-28T12:56:35.499Z,1.20
2023-12-28T12:59:03.738Z,1.17
2023-12-28T13:01:31.752Z,1.70
2023-12-28T13:03:59.802Z,1.37
2023-12-28T13:06:27.924Z,1.20
2023-12-28T13:08:56.368Z,1.17
2023-12-28T13:11:27.423Z,1.63
2023-12-28T13:13:56.762Z,1.73
2023-12-28T13:16:24.765Z,0.90
2023-12-28T13:18:52.793Z,1.57
2023-12-28T13:21:20.943Z,1.53
2023-12-28T13:23:49.039Z,1.30
2023-12-28T13:26:17.197Z,1.60
2023-12-28T13:28:46.657Z,1.40
2023-12-28T13:31:15.212Z,1.30
2023-12-28T13:33:43.440Z,1.00
2023-12-28T13:36:11.628Z,1.20
2023-12-28T13:38:39.694Z,1.30
2023-12-28T13:41:07.744Z,1.40
2023-12-28T13:43:36.912Z,1.80
2023-12-28T13:46:06.734Z,1.73
2023-12-28T13:48:35.340Z,1.93
2023-12-28T13:51:03.711Z,1.37
2023-12-28T13:53:32.681Z,2.03
2023-12-28T13:56:00.793Z,1.80
2023-12-28T13:58:28.833Z,1.50
2023-12-28T14:00:56.834Z,1.40
2023-12-28T14:03:26.271Z,1.77
2023-12-28T14:05:54.584Z,1.80
2023-12-28T14:08:22.610Z,2.43
2023-12-28T14:10:50.517Z,1.63
2023-12-28T14:13:18.578Z,1.87
2023-12-28T14:15:46.572Z,1.90
2023-12-28T14:18:14.721Z,1.60
2023-12-28T14:20:44.276Z,2.00
2023-12-28T14:23:13.471Z,1.67
2023-12-28T14:25:42.127Z,1.90
2023-12-28T14:28:12.280Z,2.83
2023-12-28T14:30:40.798Z,1.77
2023-12-28T14:33:10.020Z,1.70
2023-12-28T14:35:42.239Z,1.87
2023-12-28T14:38:12.274Z,1.97
2023-12-28T14:40:40.335Z,1.97
2023-12-28T14:43:08.264Z,1.53
2023-12-28T14:45:36.240Z,1.50
2023-12-28T14:48:05.249Z,1.83
2023-12-28T14:50:35.335Z,1.30
2023-12-28T14:53:03.955Z,1.53
2023-12-28T14:55:33.381Z,2.07
2023-12-28T14:58:03.625Z,1.20
2023-12-28T15:00:31.981Z,1.90
2023-12-28T15:03:00.032Z,1.50
2023-12-28T15:05:28.736Z,1.33
2023-12-28T15:07:58.587Z,1.60
2023-12-28T15:10:27.234Z,1.27
2023-12-28T15:12:57.283Z,1.30
2023-12-28T15:15:26.035Z,1.70
2023-12-28T15:17:54.833Z,1.67
2023-12-28T15:20:23.824Z,1.67
2023-12-28T15:22:53.760Z,1.77
2023-12-28T15:25:22.726Z,1.47
2023-12-28T15:27:50.770Z,1.50
2023-12-28T15:30:21.176Z,1.80
2023-12-28T15:32:49.354Z,1.70
2023-12-28T15:35:18.252Z,1.77
2023-12-28T15:37:46.273Z,1.30
2023-12-28T15:40:14.523Z,1.30
2023-12-28T15:42:42.470Z,1.47
2023-12-28T15:45:10.927Z,1.45
2023-12-28T15:47:40.442Z,1.20
2023-12-28T15:50:08.863Z,1.30
2023-12-28T15:52:36.868Z,1.63
2023-12-28T15:55:05.484Z,1.13
2023-12-28T15:57:33.532Z,1.20
2023-12-28T16:00:02.077Z,1.10
2023-12-28T16:02:31.355Z,1.23
2023-12-28T16:05:00.694Z,1.57
2023-12-28T16:07:28.683Z,1.30
2023-12-28T16:09:56.864Z,1.40
2023-12-28T16:12:24.870Z,1.40
2023-12-28T16:14:54.127Z,1.30
2023-12-28T16:17:23.218Z,1.60
2023-12-28T16:19:51.935Z,1.73
2023-12-28T16:22:22.615Z,1.92
2023-12-28T16:24:50.847Z,1.87
2023-12-28T16:27:19.199Z,2.10
2023-12-28T16:29:47.150Z,1.70
2023-12-28T16:32:15.612Z,1.77
2023-12-28T16:34:43.667Z,2.03
2023-12-28T16:37:11.909Z,1.83
2023-12-28T16:39:41.451Z,2.50
2023-12-28T16:42:09.398Z,2.30
2023-12-28T16:44:37.400Z,1.30
2023-12-28T16:47:05.572Z,3.27
2023-12-28T16:49:33.626Z,2.20
2023-12-28T16:52:02.056Z,1.60
2023-12-28T16:54:30.232Z,1.93
2023-12-28T16:57:00.010Z,2.03
2023-12-28T16:59:28.134Z,1.97
2023-12-28T17:01:56.311Z,1.93
2023-12-28T17:04:24.543Z,2.27
2023-12-28T17:06:52.904Z,2.00
2023-12-28T17:09:21.249Z,1.77
2023-12-28T17:11:56.716Z,1.67
2023-12-28T17:14:26.937Z,2.30
2023-12-28T17:16:55.334Z,2.07
2023-12-28T17:19:24.422Z,1.53
2023-12-28T17:21:54.033Z,1.90
2023-12-28T17:24:26.723Z,1.87
2023-12-28T17:26:59.955Z,1.60
2023-12-28T17:29:32.439Z,1.73
2023-12-28T17:32:08.754Z,2.28
2023-12-28T17:34:37.357Z,1.47
2023-12-28T17:37:06.084Z,1.63
2023-12-28T17:39:36.861Z,1.50
2023-12-28T17:42:05.464Z,1.80
2023-12-28T17:44:43.331Z,1.70
2023-12-28T17:47:22.315Z,2.03
2023-12-28T17:49:51.157Z,1.60
2023-12-28T17:52:20.591Z,1.77
2023-12-28T17:54:48.600Z,1.63
2023-12-28T17:57:16.730Z,2.17
2023-12-28T17:59:46.138Z,1.73
2023-12-28T18:02:14.192Z,1.47
2023-12-28T18:04:42.281Z,1.67
2023-12-28T18:07:13.086Z,2.25
2023-12-28T18:09:42.179Z,2.13
2023-12-28T18:12:10.909Z,2.33
2023-12-28T18:14:39.273Z,2.17
2023-12-28T18:17:08.628Z,2.20
2023-12-28T18:19:36.720Z,1.73
2023-12-28T18:22:05.133Z,1.90
2023-12-28T18:24:33.246Z,2.10
2023-12-28T18:27:02.136Z,2.10
2023-12-28T18:29:30.109Z,2.20
2023-12-28T18:31:58.122Z,1.97
2023-12-28T18:34:27.668Z,1.60
2023-12-28T18:36:56.248Z,1.20
2023-12-28T18:39:28.596Z,1.10
2023-12-28T18:41:56.703Z,2.00
2023-12-28T18:44:25.693Z,2.07
2023-12-28T18:46:53.997Z,1.40
2023-12-28T18:49:22.038Z,1.80
2023-12-28T18:51:51.411Z,1.77
2023-12-28T18:54:19.494Z,2.10
2023-12-28T18:56:47.444Z,1.87
2023-12-28T18:59:15.399Z,3.07
2023-12-28T19:01:43.627Z,2.43
2023-12-28T19:04:12.304Z,2.00
2023-12-28T19:06:40.702Z,2.67
2023-12-28T19:09:10.177Z,2.17
2023-12-28T19:11:38.202Z,2.80
2023-12-28T19:14:06.165Z,2.37
2023-12-28T19:16:34.287Z,2.33
2023-12-28T19:19:02.474Z,2.50
2023-12-28T19:21:30.722Z,2.40
2023-12-28T19:23:59.386Z,2.57
2023-12-28T19:26:28.817Z,2.43
2023-12-28T19:28:56.842Z,2.07
2023-12-28T19:31:26.394Z,2.17
2023-12-28T19:33:54.526Z,2.00
2023-12-28T19:36:22.520Z,2.30
2023-12-28T19:38:50.753Z,2.30
2023-12-28T19:41:18.903Z,2.80
2023-12-28T19:43:48.374Z,2.80
2023-12-28T19:46:16.416Z,2.83
2023-12-28T19:48:44.538Z,2.07
2023-12-28T19:51:12.926Z,1.90
2023-12-28T19:53:42.049Z,2.40
2023-12-28T19:56:10.343Z,2.40
2023-12-28T19:58:38.415Z,1.93
2023-12-28T20:01:10.330Z,2.47
2023-12-28T20:03:39.495Z,2.37
2023-12-28T20:06:09.917Z,1.87
2023-12-28T20:08:40.650Z,2.17
2023-12-28T20:11:09.322Z,2.33
2023-12-28T20:13:37.289Z,1.90
2023-12-28T20:16:08.645Z,1.90
2023-12-28T20:18:37.112Z,1.83
2023-12-28T20:21:05.680Z,2.23
2023-12-28T20:23:33.809Z,2.23
2023-12-28T20:26:01.803Z,1.93
2023-12-28T20:28:29.814Z,2.47
2023-12-28T20:30:58.059Z,2.30
2023-12-28T20:33:27.902Z,1.70
2023-12-28T20:35:56.006Z,2.30
2023-12-28T20:38:24.126Z,2.40
2023-12-28T20:40:53.681Z,2.27
2023-12-28T20:43:21.646Z,2.80
2023-12-28T20:45:52.597Z,4.17
2023-12-28T20:48:20.877Z,2.97
2023-12-28T20:50:50.560Z,2.73
2023-12-28T20:53:18.863Z,3.03
2023-12-28T20:55:46.855Z,3.20
2023-12-28T20:58:14.903Z,4.33
2023-12-28T21:00:43.186Z,3.60
2023-12-28T21:03:11.202Z,3.20
2023-12-28T21:05:39.224Z,3.83
2023-12-28T21:08:09.112Z,4.67
2023-12-28T21:10:38.544Z,4.80
2023-12-28T21:13:07.313Z,4.40
2023-12-28T21:15:35.890Z,7.97
2023-12-28T21:18:12.242Z,5.60
2023-12-28T21:20:57.402Z,3.47
2023-12-28T21:23:33.229Z,3.10
2023-12-28T21:26:01.505Z,2.80
2023-12-28T21:28:29.452Z,2.70
2023-12-28T21:30:57.607Z,1.87
2023-12-28T21:33:25.877Z,1.50
2023-12-28T21:35:53.978Z,2.63
2023-12-28T21:38:21.901Z,2.07
2023-12-28T21:40:51.321Z,1.90
2023-12-28T21:43:19.311Z,1.73
2023-12-28T21:45:48.570Z,3.03
2023-12-28T21:48:16.801Z,2.90
2023-12-28T21:50:45.032Z,2.47
2023-12-28T21:53:13.028Z,2.00
2023-12-28T21:55:41.362Z,1.73
2023-12-28T21:58:10.741Z,1.60
2023-12-28T22:00:38.717Z,1.53
2023-12-28T22:03:07.755Z,1.80
2023-12-28T22:05:37.646Z,1.67
2023-12-28T22:08:06.325Z,1.87
2023-12-28T22:10:35.543Z,1.73
2023-12-28T22:13:03.560Z,2.00
2023-12-28T22:15:33.001Z,1.90
2023-12-28T22:18:02.078Z,3.10
2023-12-28T22:20:30.223Z,2.00
2023-12-28T22:22:58.224Z,2.40
2023-12-28T22:25:26.185Z,1.83
2023-12-28T22:27:54.331Z,1.50
2023-12-28T22:30:22.489Z,1.27
2023-12-28T22:32:52.091Z,1.30
2023-12-28T22:35:20.180Z,1.03
2023-12-28T22:37:48.110Z,1.87
2023-12-28T22:40:16.237Z,1.60
2023-12-28T22:42:44.234Z,1.27
2023-12-28T22:45:12.785Z,1.40
2023-12-28T22:47:42.107Z,1.80
2023-12-28T22:50:12.099Z,1.30
2023-12-28T22:52:41.326Z,1.27
2023-12-28T22:55:10.035Z,1.33
2023-12-28T22:57:38.095Z,1.30
2023-12-28T23:00:10.497Z,1.60
2023-12-28T23:02:38.471Z,1.30
2023-12-28T23:05:07.241Z,1.60
2023-12-28T23:07:37.070Z,1.50
2023-12-28T23:10:05.616Z,2.13
2023-12-28T23:12:33.567Z,2.40
2023-12-28T23:15:01.728Z,1.77
2023-12-28T23:17:29.698Z,1.60
2023-12-28T23:19:57.728Z,1.20
2023-12-28T23:22:25.855Z,1.30
2023-12-28T23:24:55.256Z,1.80
2023-12-28T23:27:23.209Z,1.83
2023-12-28T23:29:51.179Z,1.10
2023-12-28T23:32:19.128Z,1.60
2023-12-28T23:34:47.288Z,1.70
2023-12-28T23:37:15.534Z,1.30
2023-12-28T23:39:43.528Z,1.60
2023-12-28T23:42:12.832Z,1.57
2023-12-28T23:44:40.981Z,1.50
2023-12-28T23:47:08.903Z,1.37
2023-12-28T23:49:37.631Z,1.30
2023-12-28T23:52:06.439Z,1.80
2023-12-28T23:54:37.154Z,1.20
2023-12-28T23:57:05.625Z,1.17
2023-12-28T23:59:37.830Z,1.63
